sensor_id;sensor_type;location;lat;lon;timestamp;P1;durP1;ratioP1;P2;durP2;ratioP2
18364;SDS011;9309;52.126;11.616;2023-05-10T00:01:21;2.53;;;2.37;;
18364;SDS011;9309;52.126;11.616;2023-05-10T00:03:48;3.80;;;2.63;;
18364;SDS011;9309;52.126;11.616;2023-05-10T00:06:15;3.23;;;2.50;;
18364;SDS011;9309;52.126;11.616;2023-05-10T00:08:41;2.20;;;2.10;;
18364;SDS011;9309;52.126;11.616;2023-05-10T00:11:08;4.70;;;2.80;;
18364;SDS011;9309;52.126;11.616;2023-05-10T00:13:35;3.13;;;2.93;;
18364;SDS011;9309;52.126;11.616;2023-05-10T00:16:03;3.97;;;2.93;;
18364;SDS011;9309;52.126;11.616;2023-05-10T00:18:30;3.23;;;2.57;;
18364;SDS011;9309;52.126;11.616;2023-05-10T00:20:57;2.47;;;2.30;;
18364;SDS011;9309;52.126;11.616;2023-05-10T00:23:23;2.47;;;2.27;;
18364;SDS011;9309;52.126;11.616;2023-05-10T00:25:50;2.33;;;2.23;;
18364;SDS011;9309;52.126;11.616;2023-05-10T00:28:16;2.63;;;2.50;;
18364;SDS011;9309;52.126;11.616;2023-05-10T00:30:43;2.47;;;2.37;;
18364;SDS011;9309;52.126;11.616;2023-05-10T00:33:11;2.80;;;2.60;;
18364;SDS011;9309;52.126;11.616;2023-05-10T00:35:38;2.80;;;2.70;;
18364;SDS011;9309;52.126;11.616;2023-05-10T00:38:05;7.30;;;2.80;;
18364;SDS011;9309;52.126;11.616;2023-05-10T00:40:32;2.17;;;2.17;;
18364;SDS011;9309;52.126;11.616;2023-05-10T00:43:03;4.17;;;2.60;;
18364;SDS011;9309;52.126;11.616;2023-05-10T00:45:30;2.83;;;2.50;;
18364;SDS011;9309;52.126;11.616;2023-05-10T00:47:58;6.40;;;3.07;;
18364;SDS011;9309;52.126;11.616;2023-05-10T00:50:28;2.80;;;2.57;;
18364;SDS011;9309;52.126;11.616;2023-05-10T00:52:55;2.73;;;2.63;;
18364;SDS011;9309;52.126;11.616;2023-05-10T00:55:22;2.97;;;2.73;;
18364;SDS011;9309;52.126;11.616;2023-05-10T00:57:49;3.07;;;2.93;;
18364;SDS011;9309;52.126;11.616;2023-05-10T01:00:16;6.67;;;2.70;;
18364;SDS011;9309;52.126;11.616;2023-05-10T01:02:44;3.40;;;3.10;;
18364;SDS011;9309;52.126;11.616;2023-05-10T01:05:11;3.20;;;2.53;;
18364;SDS011;9309;52.126;11.616;2023-05-10T01:07:39;2.73;;;2.20;;
18364;SDS011;9309;52.126;11.616;2023-05-10T01:10:06;4.27;;;2.80;;
18364;SDS011;9309;52.126;11.616;2023-05-10T01:12:35;11.60;;;2.90;;
18364;SDS011;9309;52.126;11.616;2023-05-10T01:15:05;2.37;;;2.27;;
18364;SDS011;9309;52.126;11.616;2023-05-10T01:17:34;3.10;;;2.77;;
18364;SDS011;9309;52.126;11.616;2023-05-10T01:20:02;2.57;;;2.47;;
18364;SDS011;9309;52.126;11.616;2023-05-10T01:22:35;2.23;;;2.20;;
18364;SDS011;9309;52.126;11.616;2023-05-10T01:25:30;2.83;;;2.63;;
18364;SDS011;9309;52.126;11.616;2023-05-10T01:28:23;3.40;;;3.10;;
18364;SDS011;9309;52.126;11.616;2023-05-10T01:33:59;3.00;;;2.87;;
18364;SDS011;9309;52.126;11.616;2023-05-10T01:36:30;3.63;;;3.10;;
18364;SDS011;9309;52.126;11.616;2023-05-10T01:38:59;2.87;;;2.67;;
18364;SDS011;9309;52.126;11.616;2023-05-10T01:41:35;3.03;;;2.77;;
18364;SDS011;9309;52.126;11.616;2023-05-10T01:44:09;3.10;;;2.80;;
18364;SDS011;9309;52.126;11.616;2023-05-10T01:46:42;4.20;;;2.70;;
18364;SDS011;9309;52.126;11.616;2023-05-10T01:49:11;2.63;;;2.53;;
18364;SDS011;9309;52.126;11.616;2023-05-10T01:51:44;6.03;;;3.43;;
18364;SDS011;9309;52.126;11.616;2023-05-10T01:54:19;3.80;;;2.83;;
18364;SDS011;9309;52.126;11.616;2023-05-10T01:56:48;2.40;;;2.30;;
18364;SDS011;9309;52.126;11.616;2023-05-10T01:59:21;3.40;;;2.83;;
18364;SDS011;9309;52.126;11.616;2023-05-10T02:01:48;2.67;;;2.20;;
18364;SDS011;9309;52.126;11.616;2023-05-10T02:04:17;3.00;;;2.90;;
18364;SDS011;9309;52.126;11.616;2023-05-10T02:06:48;2.90;;;2.70;;
18364;SDS011;9309;52.126;11.616;2023-05-10T02:09:15;3.50;;;3.20;;
18364;SDS011;9309;52.126;11.616;2023-05-10T02:11:43;4.33;;;2.93;;
18364;SDS011;9309;52.126;11.616;2023-05-10T02:14:11;3.17;;;2.87;;
18364;SDS011;9309;52.126;11.616;2023-05-10T02:16:38;3.63;;;2.30;;
18364;SDS011;9309;52.126;11.616;2023-05-10T02:19:06;5.90;;;3.70;;
18364;SDS011;9309;52.126;11.616;2023-05-10T02:21:36;2.83;;;2.73;;
18364;SDS011;9309;52.126;11.616;2023-05-10T02:24:05;2.87;;;2.67;;
18364;SDS011;9309;52.126;11.616;2023-05-10T02:26:34;2.97;;;2.83;;
18364;SDS011;9309;52.126;11.616;2023-05-10T02:29:01;3.00;;;2.77;;
18364;SDS011;9309;52.126;11.616;2023-05-10T02:31:31;3.27;;;2.97;;
18364;SDS011;9309;52.126;11.616;2023-05-10T02:33:59;2.70;;;2.50;;
18364;SDS011;9309;52.126;11.616;2023-05-10T02:36:27;2.67;;;2.47;;
18364;SDS011;9309;52.126;11.616;2023-05-10T02:38:57;2.37;;;2.33;;
18364;SDS011;9309;52.126;11.616;2023-05-10T02:41:27;3.07;;;2.73;;
18364;SDS011;9309;52.126;11.616;2023-05-10T02:43:55;2.90;;;2.73;;
18364;SDS011;9309;52.126;11.616;2023-05-10T02:46:25;3.77;;;3.37;;
18364;SDS011;9309;52.126;11.616;2023-05-10T02:48:52;3.07;;;2.87;;
18364;SDS011;9309;52.126;11.616;2023-05-10T02:51:19;3.23;;;3.03;;
18364;SDS011;9309;52.126;11.616;2023-05-10T02:53:50;3.37;;;3.07;;
18364;SDS011;9309;52.126;11.616;2023-05-10T02:56:24;2.33;;;2.23;;
18364;SDS011;9309;52.126;11.616;2023-05-10T02:58:55;2.67;;;2.47;;
18364;SDS011;9309;52.126;11.616;2023-05-10T03:01:22;3.27;;;2.97;;
18364;SDS011;9309;52.126;11.616;2023-05-10T03:03:48;3.93;;;2.80;;
18364;SDS011;9309;52.126;11.616;2023-05-10T03:06:15;2.23;;;2.13;;
18364;SDS011;9309;52.126;11.616;2023-05-10T03:08:42;2.13;;;2.13;;
18364;SDS011;9309;52.126;11.616;2023-05-10T03:11:16;3.27;;;2.97;;
18364;SDS011;9309;52.126;11.616;2023-05-10T03:14:04;3.30;;;3.07;;
18364;SDS011;9309;52.126;11.616;2023-05-10T03:16:41;2.73;;;2.63;;
18364;SDS011;9309;52.126;11.616;2023-05-10T03:19:12;3.00;;;2.90;;
18364;SDS011;9309;52.126;11.616;2023-05-10T03:21:44;2.70;;;2.57;;
18364;SDS011;9309;52.126;11.616;2023-05-10T03:24:16;2.70;;;2.57;;
18364;SDS011;9309;52.126;11.616;2023-05-10T03:26:49;4.17;;;3.63;;
18364;SDS011;9309;52.126;11.616;2023-05-10T03:29:19;2.97;;;2.87;;
18364;SDS011;9309;52.126;11.616;2023-05-10T03:31:47;2.83;;;2.63;;
18364;SDS011;9309;52.126;11.616;2023-05-10T03:34:14;3.30;;;3.00;;
18364;SDS011;9309;52.126;11.616;2023-05-10T03:36:42;2.40;;;2.30;;
18364;SDS011;9309;52.126;11.616;2023-05-10T03:39:09;4.00;;;3.40;;
18364;SDS011;9309;52.126;11.616;2023-05-10T03:41:36;3.80;;;2.77;;
18364;SDS011;9309;52.126;11.616;2023-05-10T03:44:04;3.10;;;2.90;;
18364;SDS011;9309;52.126;11.616;2023-05-10T03:46:31;2.60;;;2.50;;
18364;SDS011;9309;52.126;11.616;2023-05-10T03:48:57;2.60;;;2.50;;
18364;SDS011;9309;52.126;11.616;2023-05-10T03:51:24;2.63;;;2.53;;
18364;SDS011;9309;52.126;11.616;2023-05-10T03:53:53;5.53;;;3.67;;
18364;SDS011;9309;52.126;11.616;2023-05-10T03:56:20;4.93;;;2.60;;
18364;SDS011;9309;52.126;11.616;2023-05-10T03:58:46;2.80;;;2.70;;
18364;SDS011;9309;52.126;11.616;2023-05-10T04:01:14;2.60;;;2.50;;
18364;SDS011;9309;52.126;11.616;2023-05-10T04:03:41;2.90;;;2.70;;
18364;SDS011;9309;52.126;11.616;2023-05-10T04:06:08;2.87;;;2.67;;
18364;SDS011;9309;52.126;11.616;2023-05-10T04:08:36;2.93;;;2.67;;
18364;SDS011;9309;52.126;11.616;2023-05-10T04:11:06;2.40;;;2.30;;
18364;SDS011;9309;52.126;11.616;2023-05-10T04:13:34;3.23;;;3.07;;
18364;SDS011;9309;52.126;11.616;2023-05-10T04:16:01;3.00;;;2.80;;
18364;SDS011;9309;52.126;11.616;2023-05-10T04:18:29;3.07;;;2.87;;
18364;SDS011;9309;52.126;11.616;2023-05-10T04:20:55;2.70;;;2.50;;
18364;SDS011;9309;52.126;11.616;2023-05-10T04:23:22;2.77;;;2.57;;
18364;SDS011;9309;52.126;11.616;2023-05-10T04:25:49;2.70;;;2.40;;
18364;SDS011;9309;52.126;11.616;2023-05-10T04:28:16;4.40;;;2.80;;
18364;SDS011;9309;52.126;11.616;2023-05-10T04:30:42;7.63;;;2.57;;
18364;SDS011;9309;52.126;11.616;2023-05-10T04:33:09;2.93;;;2.57;;
18364;SDS011;9309;52.126;11.616;2023-05-10T04:35:37;3.23;;;2.23;;
18364;SDS011;9309;52.126;11.616;2023-05-10T04:38:04;2.50;;;2.40;;
18364;SDS011;9309;52.126;11.616;2023-05-10T04:40:31;3.10;;;2.97;;
18364;SDS011;9309;52.126;11.616;2023-05-10T04:42:58;2.50;;;2.40;;
18364;SDS011;9309;52.126;11.616;2023-05-10T04:45:24;6.73;;;2.70;;
18364;SDS011;9309;52.126;11.616;2023-05-10T04:47:51;3.23;;;2.87;;
18364;SDS011;9309;52.126;11.616;2023-05-10T04:50:18;1.90;;;1.90;;
18364;SDS011;9309;52.126;11.616;2023-05-10T04:52:46;2.83;;;2.70;;
18364;SDS011;9309;52.126;11.616;2023-05-10T04:55:12;2.80;;;2.70;;
18364;SDS011;9309;52.126;11.616;2023-05-10T04:57:39;2.70;;;2.60;;
18364;SDS011;9309;52.126;11.616;2023-05-10T05:00:06;4.40;;;2.80;;
18364;SDS011;9309;52.126;11.616;2023-05-10T05:02:33;2.70;;;2.60;;
18364;SDS011;9309;52.126;11.616;2023-05-10T05:05:00;2.77;;;2.50;;
18364;SDS011;9309;52.126;11.616;2023-05-10T05:07:27;2.73;;;2.53;;
18364;SDS011;9309;52.126;11.616;2023-05-10T05:09:56;2.87;;;2.63;;
18364;SDS011;9309;52.126;11.616;2023-05-10T05:12:23;2.07;;;2.07;;
18364;SDS011;9309;52.126;11.616;2023-05-10T05:14:50;2.83;;;2.63;;
18364;SDS011;9309;52.126;11.616;2023-05-10T05:17:16;4.00;;;2.80;;
18364;SDS011;9309;52.126;11.616;2023-05-10T05:19:43;2.87;;;2.67;;
18364;SDS011;9309;52.126;11.616;2023-05-10T05:22:10;1.97;;;1.87;;
18364;SDS011;9309;52.126;11.616;2023-05-10T05:24:36;1.83;;;1.83;;
18364;SDS011;9309;52.126;11.616;2023-05-10T05:27:05;2.83;;;2.70;;
18364;SDS011;9309;52.126;11.616;2023-05-10T05:29:32;4.80;;;2.47;;
18364;SDS011;9309;52.126;11.616;2023-05-10T05:31:59;4.97;;;2.63;;
18364;SDS011;9309;52.126;11.616;2023-05-10T05:34:25;3.00;;;2.30;;
18364;SDS011;9309;52.126;11.616;2023-05-10T05:36:52;2.97;;;2.40;;
18364;SDS011;9309;52.126;11.616;2023-05-10T05:39:19;2.90;;;2.60;;
18364;SDS011;9309;52.126;11.616;2023-05-10T05:41:45;4.77;;;2.90;;
18364;SDS011;9309;52.126;11.616;2023-05-10T05:44:13;2.30;;;2.20;;
18364;SDS011;9309;52.126;11.616;2023-05-10T05:46:40;2.57;;;2.40;;
18364;SDS011;9309;52.126;11.616;2023-05-10T05:49:06;1.93;;;1.83;;
18364;SDS011;9309;52.126;11.616;2023-05-10T05:51:33;2.70;;;2.57;;
18364;SDS011;9309;52.126;11.616;2023-05-10T05:54:00;2.50;;;2.40;;
18364;SDS011;9309;52.126;11.616;2023-05-10T05:56:29;2.63;;;2.47;;
18364;SDS011;9309;52.126;11.616;2023-05-10T05:58:55;3.23;;;2.93;;
18364;SDS011;9309;52.126;11.616;2023-05-10T06:01:23;2.37;;;2.27;;
18364;SDS011;9309;52.126;11.616;2023-05-10T06:03:50;4.00;;;3.70;;
18364;SDS011;9309;52.126;11.616;2023-05-10T06:06:17;2.77;;;2.33;;
18364;SDS011;9309;52.126;11.616;2023-05-10T06:08:43;2.53;;;2.40;;
18364;SDS011;9309;52.126;11.616;2023-05-10T06:11:10;2.30;;;2.20;;
18364;SDS011;9309;52.126;11.616;2023-05-10T06:13:36;2.60;;;2.40;;
18364;SDS011;9309;52.126;11.616;2023-05-10T06:16:03;3.30;;;2.77;;
18364;SDS011;9309;52.126;11.616;2023-05-10T06:18:31;3.13;;;2.93;;
18364;SDS011;9309;52.126;11.616;2023-05-10T06:20:58;2.40;;;2.30;;
18364;SDS011;9309;52.126;11.616;2023-05-10T06:23:25;2.90;;;2.70;;
18364;SDS011;9309;52.126;11.616;2023-05-10T06:25:52;2.63;;;2.53;;
18364;SDS011;9309;52.126;11.616;2023-05-10T06:28:18;2.37;;;2.27;;
18364;SDS011;9309;52.126;11.616;2023-05-10T06:30:45;2.70;;;2.50;;
18364;SDS011;9309;52.126;11.616;2023-05-10T06:33:12;2.60;;;2.40;;
18364;SDS011;9309;52.126;11.616;2023-05-10T06:35:42;2.50;;;2.40;;
18364;SDS011;9309;52.126;11.616;2023-05-10T06:38:09;3.87;;;2.50;;
18364;SDS011;9309;52.126;11.616;2023-05-10T06:40:35;2.80;;;2.40;;
18364;SDS011;9309;52.126;11.616;2023-05-10T06:43:02;3.90;;;2.60;;
18364;SDS011;9309;52.126;11.616;2023-05-10T06:45:29;1.87;;;1.77;;
18364;SDS011;9309;52.126;11.616;2023-05-10T06:47:56;2.47;;;2.37;;
18364;SDS011;9309;52.126;11.616;2023-05-10T06:50:22;2.07;;;1.97;;
18364;SDS011;9309;52.126;11.616;2023-05-10T06:52:50;1.90;;;1.80;;
18364;SDS011;9309;52.126;11.616;2023-05-10T06:55:17;2.20;;;2.10;;
18364;SDS011;9309;52.126;11.616;2023-05-10T06:57:43;5.43;;;2.60;;
18364;SDS011;9309;52.126;11.616;2023-05-10T07:00:10;5.40;;;2.70;;
18364;SDS011;9309;52.126;11.616;2023-05-10T07:02:37;2.27;;;2.17;;
18364;SDS011;9309;52.126;11.616;2023-05-10T07:05:04;3.53;;;2.50;;
18364;SDS011;9309;52.126;11.616;2023-05-10T07:07:31;2.80;;;2.60;;
18364;SDS011;9309;52.126;11.616;2023-05-10T07:09:59;3.10;;;2.47;;
18364;SDS011;9309;52.126;11.616;2023-05-10T07:12:26;2.90;;;2.50;;
18364;SDS011;9309;52.126;11.616;2023-05-10T07:14:52;2.00;;;1.90;;
18364;SDS011;9309;52.126;11.616;2023-05-10T07:17:19;2.40;;;2.30;;
18364;SDS011;9309;52.126;11.616;2023-05-10T07:19:46;2.13;;;2.03;;
18364;SDS011;9309;52.126;11.616;2023-05-10T07:22:12;2.80;;;2.30;;
18364;SDS011;9309;52.126;11.616;2023-05-10T07:24:39;2.17;;;2.07;;
18364;SDS011;9309;52.126;11.616;2023-05-10T07:27:08;2.33;;;2.23;;
18364;SDS011;9309;52.126;11.616;2023-05-10T07:29:34;2.23;;;2.13;;
18364;SDS011;9309;52.126;11.616;2023-05-10T07:32:02;3.53;;;2.47;;
18364;SDS011;9309;52.126;11.616;2023-05-10T07:34:29;3.40;;;2.27;;
18364;SDS011;9309;52.126;11.616;2023-05-10T07:36:57;4.67;;;2.60;;
18364;SDS011;9309;52.126;11.616;2023-05-10T07:39:24;2.40;;;2.20;;
18364;SDS011;9309;52.126;11.616;2023-05-10T07:41:51;2.17;;;2.07;;
18364;SDS011;9309;52.126;11.616;2023-05-10T07:44:19;3.30;;;3.00;;
18364;SDS011;9309;52.126;11.616;2023-05-10T07:46:46;2.27;;;2.17;;
18364;SDS011;9309;52.126;11.616;2023-05-10T07:49:13;2.80;;;2.60;;
18364;SDS011;9309;52.126;11.616;2023-05-10T07:51:40;4.57;;;2.40;;
18364;SDS011;9309;52.126;11.616;2023-05-10T07:54:07;2.50;;;2.37;;
18364;SDS011;9309;52.126;11.616;2023-05-10T07:56:34;2.57;;;2.40;;
18364;SDS011;9309;52.126;11.616;2023-05-10T07:59:01;3.63;;;2.33;;
18364;SDS011;9309;52.126;11.616;2023-05-10T08:01:31;3.57;;;2.10;;
18364;SDS011;9309;52.126;11.616;2023-05-10T08:03:59;2.57;;;2.43;;
18364;SDS011;9309;52.126;11.616;2023-05-10T08:06:26;2.57;;;2.47;;
18364;SDS011;9309;52.126;11.616;2023-05-10T08:08:54;2.70;;;2.50;;
18364;SDS011;9309;52.126;11.616;2023-05-10T08:11:22;2.83;;;2.57;;
18364;SDS011;9309;52.126;11.616;2023-05-10T08:13:49;2.20;;;2.10;;
18364;SDS011;9309;52.126;11.616;2023-05-10T08:16:16;2.30;;;2.20;;
18364;SDS011;9309;52.126;11.616;2023-05-10T08:18:45;1.97;;;1.87;;
18364;SDS011;9309;52.126;11.616;2023-05-10T08:21:13;2.50;;;2.30;;
18364;SDS011;9309;52.126;11.616;2023-05-10T08:23:40;3.07;;;2.87;;
18364;SDS011;9309;52.126;11.616;2023-05-10T08:26:08;2.60;;;2.40;;
18364;SDS011;9309;52.126;11.616;2023-05-10T08:28:35;2.70;;;2.50;;
18364;SDS011;9309;52.126;11.616;2023-05-10T08:31:02;3.33;;;2.70;;
18364;SDS011;9309;52.126;11.616;2023-05-10T08:33:28;4.97;;;2.97;;
18364;SDS011;9309;52.126;11.616;2023-05-10T08:35:56;3.50;;;3.27;;
18364;SDS011;9309;52.126;11.616;2023-05-10T08:38:23;2.67;;;2.40;;
18364;SDS011;9309;52.126;11.616;2023-05-10T08:40:50;2.60;;;2.40;;
18364;SDS011;9309;52.126;11.616;2023-05-10T08:43:21;3.07;;;2.87;;
18364;SDS011;9309;52.126;11.616;2023-05-10T08:45:50;3.70;;;3.00;;
18364;SDS011;9309;52.126;11.616;2023-05-10T08:48:19;3.00;;;2.70;;
18364;SDS011;9309;52.126;11.616;2023-05-10T08:50:49;3.20;;;2.80;;
18364;SDS011;9309;52.126;11.616;2023-05-10T08:53:20;2.77;;;2.60;;
18364;SDS011;9309;52.126;11.616;2023-05-10T08:55:48;3.03;;;2.73;;
18364;SDS011;9309;52.126;11.616;2023-05-10T08:58:15;7.23;;;2.80;;
18364;SDS011;9309;52.126;11.616;2023-05-10T09:00:44;3.10;;;2.80;;
18364;SDS011;9309;52.126;11.616;2023-05-10T09:03:11;4.40;;;2.47;;
18364;SDS011;9309;52.126;11.616;2023-05-10T09:05:38;2.67;;;2.43;;
18364;SDS011;9309;52.126;11.616;2023-05-10T09:08:06;2.50;;;2.40;;
18364;SDS011;9309;52.126;11.616;2023-05-10T09:10:36;3.10;;;2.60;;
18364;SDS011;9309;52.126;11.616;2023-05-10T09:13:04;3.43;;;3.13;;
18364;SDS011;9309;52.126;11.616;2023-05-10T09:15:31;2.87;;;2.67;;
18364;SDS011;9309;52.126;11.616;2023-05-10T09:17:58;4.13;;;2.97;;
18364;SDS011;9309;52.126;11.616;2023-05-10T09:20:27;2.73;;;2.53;;
18364;SDS011;9309;52.126;11.616;2023-05-10T09:22:54;3.00;;;2.80;;
18364;SDS011;9309;52.126;11.616;2023-05-10T09:25:20;6.43;;;2.60;;
18364;SDS011;9309;52.126;11.616;2023-05-10T09:27:49;2.73;;;2.60;;
18364;SDS011;9309;52.126;11.616;2023-05-10T09:30:16;2.87;;;2.43;;
18364;SDS011;9309;52.126;11.616;2023-05-10T09:32:44;3.17;;;2.80;;
18364;SDS011;9309;52.126;11.616;2023-05-10T09:35:12;2.90;;;2.70;;
18364;SDS011;9309;52.126;11.616;2023-05-10T09:37:40;4.63;;;2.67;;
18364;SDS011;9309;52.126;11.616;2023-05-10T09:40:10;4.03;;;3.00;;
18364;SDS011;9309;52.126;11.616;2023-05-10T09:42:38;2.90;;;2.70;;
18364;SDS011;9309;52.126;11.616;2023-05-10T09:45:08;3.47;;;2.70;;
18364;SDS011;9309;52.126;11.616;2023-05-10T09:47:35;8.33;;;3.20;;
18364;SDS011;9309;52.126;11.616;2023-05-10T09:50:02;2.80;;;2.60;;
18364;SDS011;9309;52.126;11.616;2023-05-10T09:52:29;3.17;;;2.90;;
18364;SDS011;9309;52.126;11.616;2023-05-10T09:54:57;3.77;;;2.97;;
18364;SDS011;9309;52.126;11.616;2023-05-10T09:57:25;6.87;;;2.73;;
18364;SDS011;9309;52.126;11.616;2023-05-10T09:59:52;3.17;;;2.93;;
18364;SDS011;9309;52.126;11.616;2023-05-10T10:02:20;2.80;;;2.60;;
18364;SDS011;9309;52.126;11.616;2023-05-10T10:04:53;3.30;;;3.20;;
18364;SDS011;9309;52.126;11.616;2023-05-10T10:07:22;4.07;;;3.13;;
18364;SDS011;9309;52.126;11.616;2023-05-10T10:09:50;5.63;;;3.23;;
18364;SDS011;9309;52.126;11.616;2023-05-10T10:12:17;3.43;;;3.00;;
18364;SDS011;9309;52.126;11.616;2023-05-10T10:14:45;3.93;;;2.63;;
18364;SDS011;9309;52.126;11.616;2023-05-10T10:17:12;5.97;;;3.20;;
18364;SDS011;9309;52.126;11.616;2023-05-10T10:19:40;2.87;;;2.77;;
18364;SDS011;9309;52.126;11.616;2023-05-10T10:22:07;2.90;;;2.70;;
18364;SDS011;9309;52.126;11.616;2023-05-10T10:24:35;5.30;;;3.73;;
18364;SDS011;9309;52.126;11.616;2023-05-10T10:27:04;5.27;;;2.73;;
18364;SDS011;9309;52.126;11.616;2023-05-10T10:29:39;4.63;;;2.90;;
18364;SDS011;9309;52.126;11.616;2023-05-10T10:32:12;3.47;;;3.13;;
18364;SDS011;9309;52.126;11.616;2023-05-10T10:34:49;3.07;;;2.90;;
18364;SDS011;9309;52.126;11.616;2023-05-10T10:37:17;3.97;;;2.83;;
18364;SDS011;9309;52.126;11.616;2023-05-10T10:39:44;3.83;;;3.40;;
18364;SDS011;9309;52.126;11.616;2023-05-10T10:42:10;4.37;;;3.00;;
18364;SDS011;9309;52.126;11.616;2023-05-10T10:44:37;4.73;;;3.57;;
18364;SDS011;9309;52.126;11.616;2023-05-10T10:47:06;5.67;;;3.70;;
18364;SDS011;9309;52.126;11.616;2023-05-10T10:49:50;3.30;;;3.00;;
18364;SDS011;9309;52.126;11.616;2023-05-10T10:52:23;4.07;;;3.20;;
18364;SDS011;9309;52.126;11.616;2023-05-10T10:54:56;5.97;;;3.87;;
18364;SDS011;9309;52.126;11.616;2023-05-10T10:57:25;3.80;;;3.50;;
18364;SDS011;9309;52.126;11.616;2023-05-10T10:59:54;3.57;;;3.27;;
18364;SDS011;9309;52.126;11.616;2023-05-10T11:03:03;3.73;;;3.43;;
18364;SDS011;9309;52.126;11.616;2023-05-10T11:05:36;3.87;;;3.57;;
18364;SDS011;9309;52.126;11.616;2023-05-10T11:08:15;3.97;;;3.60;;
18364;SDS011;9309;52.126;11.616;2023-05-10T11:13:37;3.33;;;3.13;;
18364;SDS011;9309;52.126;11.616;2023-05-10T11:16:11;5.87;;;3.40;;
18364;SDS011;9309;52.126;11.616;2023-05-10T11:18:40;5.17;;;3.83;;
18364;SDS011;9309;52.126;11.616;2023-05-10T11:21:18;4.00;;;3.70;;
18364;SDS011;9309;52.126;11.616;2023-05-10T11:23:48;3.90;;;3.37;;
18364;SDS011;9309;52.126;11.616;2023-05-10T11:26:16;3.27;;;3.03;;
18364;SDS011;9309;52.126;11.616;2023-05-10T11:28:43;4.27;;;3.30;;
18364;SDS011;9309;52.126;11.616;2023-05-10T11:31:12;4.60;;;3.87;;
18364;SDS011;9309;52.126;11.616;2023-05-10T11:33:42;3.77;;;3.20;;
18364;SDS011;9309;52.126;11.616;2023-05-10T11:36:10;5.60;;;3.70;;
18364;SDS011;9309;52.126;11.616;2023-05-10T11:38:39;6.37;;;4.80;;
18364;SDS011;9309;52.126;11.616;2023-05-10T11:41:07;5.67;;;4.60;;
18364;SDS011;9309;52.126;11.616;2023-05-10T11:43:34;6.10;;;4.30;;
18364;SDS011;9309;52.126;11.616;2023-05-10T11:46:03;6.23;;;4.23;;
18364;SDS011;9309;52.126;11.616;2023-05-10T11:48:30;5.10;;;4.47;;
18364;SDS011;9309;52.126;11.616;2023-05-10T11:50:57;6.63;;;4.33;;
18364;SDS011;9309;52.126;11.616;2023-05-10T11:53:25;7.73;;;4.60;;
18364;SDS011;9309;52.126;11.616;2023-05-10T11:55:53;4.77;;;4.00;;
18364;SDS011;9309;52.126;11.616;2023-05-10T11:58:20;4.40;;;3.93;;
18364;SDS011;9309;52.126;11.616;2023-05-10T12:00:48;7.43;;;4.77;;
18364;SDS011;9309;52.126;11.616;2023-05-10T12:03:16;4.93;;;3.90;;
18364;SDS011;9309;52.126;11.616;2023-05-10T12:05:43;7.97;;;4.63;;
18364;SDS011;9309;52.126;11.616;2023-05-10T12:08:13;4.63;;;4.23;;
18364;SDS011;9309;52.126;11.616;2023-05-10T12:10:41;7.20;;;4.40;;
18364;SDS011;9309;52.126;11.616;2023-05-10T12:13:11;4.20;;;3.73;;
18364;SDS011;9309;52.126;11.616;2023-05-10T12:15:40;7.67;;;4.63;;
18364;SDS011;9309;52.126;11.616;2023-05-10T12:18:07;5.10;;;4.53;;
18364;SDS011;9309;52.126;11.616;2023-05-10T12:20:35;8.17;;;5.30;;
18364;SDS011;9309;52.126;11.616;2023-05-10T12:23:02;7.10;;;4.60;;
18364;SDS011;9309;52.126;11.616;2023-05-10T12:25:30;6.07;;;4.83;;
18364;SDS011;9309;52.126;11.616;2023-05-10T12:27:58;7.57;;;5.30;;
18364;SDS011;9309;52.126;11.616;2023-05-10T12:30:28;5.23;;;4.73;;
18364;SDS011;9309;52.126;11.616;2023-05-10T12:32:59;9.07;;;5.03;;
18364;SDS011;9309;52.126;11.616;2023-05-10T12:35:29;4.77;;;4.37;;
18364;SDS011;9309;52.126;11.616;2023-05-10T12:37:56;6.20;;;5.17;;
18364;SDS011;9309;52.126;11.616;2023-05-10T12:40:23;5.10;;;4.37;;
18364;SDS011;9309;52.126;11.616;2023-05-10T12:42:50;6.77;;;4.70;;
18364;SDS011;9309;52.126;11.616;2023-05-10T12:45:17;4.63;;;4.17;;
18364;SDS011;9309;52.126;11.616;2023-05-10T12:47:45;6.23;;;5.07;;
18364;SDS011;9309;52.126;11.616;2023-05-10T12:50:12;6.30;;;4.93;;
18364;SDS011;9309;52.126;11.616;2023-05-10T12:52:38;6.97;;;5.10;;
18364;SDS011;9309;52.126;11.616;2023-05-10T12:55:05;10.03;;;5.70;;
18364;SDS011;9309;52.126;11.616;2023-05-10T12:57:32;8.10;;;5.37;;
18364;SDS011;9309;52.126;11.616;2023-05-10T12:59:59;8.50;;;5.23;;
18364;SDS011;9309;52.126;11.616;2023-05-10T13:02:25;8.57;;;5.47;;
18364;SDS011;9309;52.126;11.616;2023-05-10T13:04:53;5.77;;;5.17;;
18364;SDS011;9309;52.126;11.616;2023-05-10T13:07:20;8.47;;;5.40;;
18364;SDS011;9309;52.126;11.616;2023-05-10T13:09:47;6.03;;;4.27;;
18364;SDS011;9309;52.126;11.616;2023-05-10T13:12:13;7.57;;;3.70;;
18364;SDS011;9309;52.126;11.616;2023-05-10T13:14:40;6.17;;;4.27;;
18364;SDS011;9309;52.126;11.616;2023-05-10T13:17:07;3.63;;;3.30;;
18364;SDS011;9309;52.126;11.616;2023-05-10T13:19:33;3.33;;;3.10;;
18364;SDS011;9309;52.126;11.616;2023-05-10T13:22:02;3.17;;;2.90;;
18364;SDS011;9309;52.126;11.616;2023-05-10T13:24:29;2.77;;;2.60;;
18364;SDS011;9309;52.126;11.616;2023-05-10T13:26:55;3.00;;;2.73;;
18364;SDS011;9309;52.126;11.616;2023-05-10T13:29:22;3.10;;;2.77;;
18364;SDS011;9309;52.126;11.616;2023-05-10T13:31:49;2.90;;;2.70;;
18364;SDS011;9309;52.126;11.616;2023-05-10T13:34:16;3.13;;;2.83;;
18364;SDS011;9309;52.126;11.616;2023-05-10T13:36:45;3.03;;;2.83;;
18364;SDS011;9309;52.126;11.616;2023-05-10T13:39:13;3.20;;;3.00;;
18364;SDS011;9309;52.126;11.616;2023-05-10T13:41:40;3.00;;;2.67;;
18364;SDS011;9309;52.126;11.616;2023-05-10T13:44:07;3.00;;;2.80;;
18364;SDS011;9309;52.126;11.616;2023-05-10T13:46:33;3.77;;;2.60;;
18364;SDS011;9309;52.126;11.616;2023-05-10T13:49:00;2.90;;;2.70;;
18364;SDS011;9309;52.126;11.616;2023-05-10T13:51:27;2.57;;;2.37;;
18364;SDS011;9309;52.126;11.616;2023-05-10T13:53:53;1.90;;;1.90;;
18364;SDS011;9309;52.126;11.616;2023-05-10T13:56:21;1.90;;;1.80;;
18364;SDS011;9309;52.126;11.616;2023-05-10T13:58:48;2.23;;;1.57;;
18364;SDS011;9309;52.126;11.616;2023-05-10T14:01:15;1.88;;;1.77;;
18364;SDS011;9309;52.126;11.616;2023-05-10T14:03:41;1.92;;;1.67;;
18364;SDS011;9309;52.126;11.616;2023-05-10T14:06:08;2.13;;;2.00;;
18364;SDS011;9309;52.126;11.616;2023-05-10T14:08:35;1.83;;;1.83;;
18364;SDS011;9309;52.126;11.616;2023-05-10T14:11:02;2.30;;;2.20;;
18364;SDS011;9309;52.126;11.616;2023-05-10T14:13:30;2.33;;;2.23;;
18364;SDS011;9309;52.126;11.616;2023-05-10T14:15:56;2.70;;;2.50;;
18364;SDS011;9309;52.126;11.616;2023-05-10T14:18:25;2.23;;;2.13;;
18364;SDS011;9309;52.126;11.616;2023-05-10T14:20:52;1.70;;;1.60;;
18364;SDS011;9309;52.126;11.616;2023-05-10T14:23:18;2.07;;;1.97;;
18364;SDS011;9309;52.126;11.616;2023-05-10T14:25:49;2.67;;;2.47;;
18364;SDS011;9309;52.126;11.616;2023-05-10T14:28:15;2.00;;;1.90;;
18364;SDS011;9309;52.126;11.616;2023-05-10T14:30:44;2.30;;;2.20;;
18364;SDS011;9309;52.126;11.616;2023-05-10T14:33:11;2.67;;;2.47;;
18364;SDS011;9309;52.126;11.616;2023-05-10T14:35:38;2.33;;;2.13;;
18364;SDS011;9309;52.126;11.616;2023-05-10T14:38:05;2.50;;;2.30;;
18364;SDS011;9309;52.126;11.616;2023-05-10T14:40:32;2.80;;;2.60;;
18364;SDS011;9309;52.126;11.616;2023-05-10T14:42:59;3.00;;;2.80;;
18364;SDS011;9309;52.126;11.616;2023-05-10T14:45:26;2.13;;;2.03;;
18364;SDS011;9309;52.126;11.616;2023-05-10T14:47:54;2.43;;;2.23;;
18364;SDS011;9309;52.126;11.616;2023-05-10T14:50:21;2.70;;;2.50;;
18364;SDS011;9309;52.126;11.616;2023-05-10T14:52:48;3.97;;;2.60;;
18364;SDS011;9309;52.126;11.616;2023-05-10T14:55:15;2.67;;;2.57;;
18364;SDS011;9309;52.126;11.616;2023-05-10T14:57:42;2.73;;;2.57;;
18364;SDS011;9309;52.126;11.616;2023-05-10T15:00:10;2.70;;;2.60;;